sensor_id;sensor_type;location;lat;lon;timestamp;P1;durP1;ratioP1;P2;durP2;ratioP2
30303;SDS011;17112;48.636;10.152;2023-12-20T00:00:39;6.57;;;4.75;;
30303;SDS011;17112;48.636;10.152;2023-12-20T00:03:05;7.00;;;4.68;;
30303;SDS011;17112;48.636;10.152;2023-12-20T00:05:30;6.05;;;4.38;;
30303;SDS011;17112;48.636;10.152;2023-12-20T00:08:00;6.28;;;4.25;;
30303;SDS011;17112;48.636;10.152;2023-12-20T00:10:25;4.80;;;3.85;;
30303;SDS011;17112;48.636;10.152;2023-12-20T00:12:51;7.22;;;3.88;;
30303;SDS011;17112;48.636;10.152;2023-12-20T00:15:17;4.85;;;3.78;;
30303;SDS011;17112;48.636;10.152;2023-12-20T00:17:43;7.82;;;4.45;;
30303;SDS011;17112;48.636;10.152;2023-12-20T00:20:08;6.95;;;4.50;;
30303;SDS011;17112;48.636;10.152;2023-12-20T00:22:34;7.05;;;4.40;;
30303;SDS011;17112;48.636;10.152;2023-12-20T00:25:00;6.38;;;4.28;;
30303;SDS011;17112;48.636;10.152;2023-12-20T00:27:26;7.05;;;4.03;;
30303;SDS011;17112;48.636;10.152;2023-12-20T00:29:52;6.22;;;3.97;;
30303;SDS011;17112;48.636;10.152;2023-12-20T00:32:17;8.10;;;4.13;;
30303;SDS011;17112;48.636;10.152;2023-12-20T00:34:43;4.43;;;3.88;;
30303;SDS011;17112;48.636;10.152;2023-12-20T00:37:09;8.25;;;4.35;;
30303;SDS011;17112;48.636;10.152;2023-12-20T00:39:35;5.18;;;4.07;;
30303;SDS011;17112;48.636;10.152;2023-12-20T00:42:00;5.47;;;3.63;;
30303;SDS011;17112;48.636;10.152;2023-12-20T00:44:26;10.13;;;4.35;;
30303;SDS011;17112;48.636;10.152;2023-12-20T00:46:51;5.72;;;4.03;;
30303;SDS011;17112;48.636;10.152;2023-12-20T00:49:17;8.40;;;3.70;;
30303;SDS011;17112;48.636;10.152;2023-12-20T00:51:43;5.10;;;3.95;;
30303;SDS011;17112;48.636;10.152;2023-12-20T00:54:08;5.07;;;3.75;;
30303;SDS011;17112;48.636;10.152;2023-12-20T00:56:35;3.85;;;3.33;;
30303;SDS011;17112;48.636;10.152;2023-12-20T00:59:00;4.05;;;3.42;;
30303;SDS011;17112;48.636;10.152;2023-12-20T01:01:26;4.65;;;3.40;;
30303;SDS011;17112;48.636;10.152;2023-12-20T01:03:52;5.00;;;3.47;;
30303;SDS011;17112;48.636;10.152;2023-12-20T01:06:18;4.57;;;3.60;;
30303;SDS011;17112;48.636;10.152;2023-12-20T01:08:44;4.28;;;3.55;;
30303;SDS011;17112;48.636;10.152;2023-12-20T01:11:10;5.00;;;3.55;;
30303;SDS011;17112;48.636;10.152;2023-12-20T01:13:35;5.03;;;3.38;;
30303;SDS011;17112;48.636;10.152;2023-12-20T01:16:01;3.80;;;3.40;;
30303;SDS011;17112;48.636;10.152;2023-12-20T01:18:27;4.47;;;3.30;;
30303;SDS011;17112;48.636;10.152;2023-12-20T01:20:53;9.60;;;3.67;;
30303;SDS011;17112;48.636;10.152;2023-12-20T01:23:19;5.68;;;3.30;;
30303;SDS011;17112;48.636;10.152;2023-12-20T01:25:44;4.78;;;3.30;;
30303;SDS011;17112;48.636;10.152;2023-12-20T01:28:10;4.43;;;3.28;;
30303;SDS011;17112;48.636;10.152;2023-12-20T01:30:36;5.13;;;3.35;;
30303;SDS011;17112;48.636;10.152;2023-12-20T01:33:02;4.38;;;2.88;;
30303;SDS011;17112;48.636;10.152;2023-12-20T01:35:28;3.88;;;3.17;;
30303;SDS011;17112;48.636;10.152;2023-12-20T01:37:54;6.43;;;3.20;;
30303;SDS011;17112;48.636;10.152;2023-12-20T01:40:22;4.63;;;3.10;;
30303;SDS011;17112;48.636;10.152;2023-12-20T01:42:57;4.78;;;3.10;;
30303;SDS011;17112;48.636;10.152;2023-12-20T01:45:23;4.60;;;2.88;;
30303;SDS011;17112;48.636;10.152;2023-12-20T01:47:49;4.00;;;3.22;;
30303;SDS011;17112;48.636;10.152;2023-12-20T01:50:15;3.78;;;3.05;;
30303;SDS011;17112;48.636;10.152;2023-12-20T01:52:42;4.25;;;3.03;;
30303;SDS011;17112;48.636;10.152;2023-12-20T01:55:08;4.95;;;3.28;;
30303;SDS011;17112;48.636;10.152;2023-12-20T01:57:39;4.40;;;3.10;;
30303;SDS011;17112;48.636;10.152;2023-12-20T02:00:06;3.90;;;3.30;;
30303;SDS011;17112;48.636;10.152;2023-12-20T02:02:34;3.58;;;2.90;;
30303;SDS011;17112;48.636;10.152;2023-12-20T02:05:03;4.47;;;2.92;;
30303;SDS011;17112;48.636;10.152;2023-12-20T02:07:29;4.45;;;3.13;;
30303;SDS011;17112;48.636;10.152;2023-12-20T02:09:57;3.90;;;2.95;;
30303;SDS011;17112;48.636;10.152;2023-12-20T02:12:22;3.78;;;2.67;;
30303;SDS011;17112;48.636;10.152;2023-12-20T02:14:48;2.90;;;2.60;;
30303;SDS011;17112;48.636;10.152;2023-12-20T02:17:15;4.00;;;2.65;;
30303;SDS011;17112;48.636;10.152;2023-12-20T02:19:41;5.18;;;2.80;;
30303;SDS011;17112;48.636;10.152;2023-12-20T02:22:12;3.00;;;2.60;;
30303;SDS011;17112;48.636;10.152;2023-12-20T02:24:38;2.97;;;2.67;;
30303;SDS011;17112;48.636;10.152;2023-12-20T02:27:05;2.75;;;2.50;;
30303;SDS011;17112;48.636;10.152;2023-12-20T02:29:32;3.83;;;2.65;;
30303;SDS011;17112;48.636;10.152;2023-12-20T02:32:01;2.80;;;2.50;;
30303;SDS011;17112;48.636;10.152;2023-12-20T02:34:27;4.10;;;2.80;;
30303;SDS011;17112;48.636;10.152;2023-12-20T02:36:53;3.20;;;2.67;;
30303;SDS011;17112;48.636;10.152;2023-12-20T02:39:19;3.60;;;2.70;;
30303;SDS011;17112;48.636;10.152;2023-12-20T02:41:45;3.58;;;2.90;;
30303;SDS011;17112;48.636;10.152;2023-12-20T02:44:12;3.80;;;2.38;;
30303;SDS011;17112;48.636;10.152;2023-12-20T02:46:37;3.42;;;2.58;;
30303;SDS011;17112;48.636;10.152;2023-12-20T02:49:03;3.92;;;2.95;;
30303;SDS011;17112;48.636;10.152;2023-12-20T02:51:29;5.13;;;2.90;;
30303;SDS011;17112;48.636;10.152;2023-12-20T02:53:54;8.13;;;3.17;;
30303;SDS011;17112;48.636;10.152;2023-12-20T02:56:20;3.42;;;2.80;;
30303;SDS011;17112;48.636;10.152;2023-12-20T02:58:46;2.60;;;2.30;;
30303;SDS011;17112;48.636;10.152;2023-12-20T03:01:11;3.38;;;2.55;;
30303;SDS011;17112;48.636;10.152;2023-12-20T03:03:37;3.33;;;2.47;;
30303;SDS011;17112;48.636;10.152;2023-12-20T03:06:03;2.38;;;1.70;;
30303;SDS011;17112;48.636;10.152;2023-12-20T03:08:28;1.50;;;1.40;;
30303;SDS011;17112;48.636;10.152;2023-12-20T03:10:54;1.98;;;1.27;;
30303;SDS011;17112;48.636;10.152;2023-12-20T03:13:20;1.35;;;1.20;;
30303;SDS011;17112;48.636;10.152;2023-12-20T03:15:45;1.27;;;0.85;;
30303;SDS011;17112;48.636;10.152;2023-12-20T03:18:11;1.05;;;0.82;;
30303;SDS011;17112;48.636;10.152;2023-12-20T03:20:37;1.05;;;1.00;;
30303;SDS011;17112;48.636;10.152;2023-12-20T03:23:03;1.48;;;0.90;;
30303;SDS011;17112;48.636;10.152;2023-12-20T03:25:28;0.80;;;0.80;;
30303;SDS011;17112;48.636;10.152;2023-12-20T03:27:54;0.80;;;0.80;;
30303;SDS011;17112;48.636;10.152;2023-12-20T03:30:20;0.90;;;0.90;;
30303;SDS011;17112;48.636;10.152;2023-12-20T03:32:46;0.88;;;0.82;;
30303;SDS011;17112;48.636;10.152;2023-12-20T03:35:11;0.85;;;0.80;;
30303;SDS011;17112;48.636;10.152;2023-12-20T03:37:37;0.80;;;0.80;;
30303;SDS011;17112;48.636;10.152;2023-12-20T03:40:03;0.80;;;0.80;;
30303;SDS011;17112;48.636;10.152;2023-12-20T03:42:29;1.95;;;1.00;;
30303;SDS011;17112;48.636;10.152;2023-12-20T03:44:57;1.80;;;1.00;;
30303;SDS011;17112;48.636;10.152;2023-12-20T03:47:26;0.93;;;0.88;;
30303;SDS011;17112;48.636;10.152;2023-12-20T03:49:53;0.82;;;0.82;;
30303;SDS011;17112;48.636;10.152;2023-12-20T03:52:19;0.90;;;0.90;;
30303;SDS011;17112;48.636;10.152;2023-12-20T03:54:44;1.15;;;0.93;;
30303;SDS011;17112;48.636;10.152;2023-12-20T03:57:10;1.27;;;1.17;;
30303;SDS011;17112;48.636;10.152;2023-12-20T03:59:36;2.65;;;1.20;;
30303;SDS011;17112;48.636;10.152;2023-12-20T04:02:02;1.85;;;1.30;;
30303;SDS011;17112;48.636;10.152;2023-12-20T04:04:28;1.25;;;1.15;;
30303;SDS011;17112;48.636;10.152;2023-12-20T04:06:54;1.30;;;1.20;;
30303;SDS011;17112;48.636;10.152;2023-12-20T04:09:20;1.33;;;1.20;;
30303;SDS011;17112;48.636;10.152;2023-12-20T04:11:46;1.00;;;1.00;;
30303;SDS011;17112;48.636;10.152;2023-12-20T04:14:11;1.33;;;1.10;;
30303;SDS011;17112;48.636;10.152;2023-12-20T04:16:37;1.40;;;1.30;;
30303;SDS011;17112;48.636;10.152;2023-12-20T04:19:04;1.30;;;1.20;;
30303;SDS011;17112;48.636;10.152;2023-12-20T04:21:30;1.38;;;1.27;;
30303;SDS011;17112;48.636;10.152;2023-12-20T04:23:56;1.52;;;1.10;;
30303;SDS011;17112;48.636;10.152;2023-12-20T04:26:22;1.20;;;1.10;;
30303;SDS011;17112;48.636;10.152;2023-12-20T04:28:48;1.20;;;1.10;;
30303;SDS011;17112;48.636;10.152;2023-12-20T04:31:14;2.78;;;1.00;;
30303;SDS011;17112;48.636;10.152;2023-12-20T04:33:39;1.15;;;1.10;;
30303;SDS011;17112;48.636;10.152;2023-12-20T04:36:05;0.90;;;0.90;;
30303;SDS011;17112;48.636;10.152;2023-12-20T04:38:31;0.90;;;0.88;;
30303;SDS011;17112;48.636;10.152;2023-12-20T04:40:56;0.95;;;0.88;;
30303;SDS011;17112;48.636;10.152;2023-12-20T04:43:22;0.90;;;0.90;;
30303;SDS011;17112;48.636;10.152;2023-12-20T04:45:48;0.82;;;0.82;;
30303;SDS011;17112;48.636;10.152;2023-12-20T04:48:15;1.10;;;1.00;;
30303;SDS011;17112;48.636;10.152;2023-12-20T04:50:42;1.48;;;0.90;;
30303;SDS011;17112;48.636;10.152;2023-12-20T04:53:08;1.00;;;1.00;;
30303;SDS011;17112;48.636;10.152;2023-12-20T04:55:33;1.20;;;1.10;;
30303;SDS011;17112;48.636;10.152;2023-12-20T04:57:59;1.25;;;0.90;;
30303;SDS011;17112;48.636;10.152;2023-12-20T05:00:25;0.80;;;0.80;;
30303;SDS011;17112;48.636;10.152;2023-12-20T05:02:50;0.80;;;0.80;;
30303;SDS011;17112;48.636;10.152;2023-12-20T05:05:16;0.90;;;0.90;;
30303;SDS011;17112;48.636;10.152;2023-12-20T05:07:43;1.00;;;1.00;;
30303;SDS011;17112;48.636;10.152;2023-12-20T05:10:09;0.90;;;0.90;;
30303;SDS011;17112;48.636;10.152;2023-12-20T05:12:34;0.88;;;0.88;;
30303;SDS011;17112;48.636;10.152;2023-12-20T05:15:00;1.08;;;1.00;;
30303;SDS011;17112;48.636;10.152;2023-12-20T05:17:26;0.90;;;0.90;;
30303;SDS011;17112;48.636;10.152;2023-12-20T05:19:52;1.00;;;1.00;;
30303;SDS011;17112;48.636;10.152;2023-12-20T05:22:18;0.90;;;0.90;;
30303;SDS011;17112;48.636;10.152;2023-12-20T05:24:45;0.88;;;0.80;;
30303;SDS011;17112;48.636;10.152;2023-12-20T05:27:10;1.05;;;0.90;;
30303;SDS011;17112;48.636;10.152;2023-12-20T05:29:36;1.58;;;1.48;;
30303;SDS011;17112;48.636;10.152;2023-12-20T05:32:02;1.13;;;1.02;;
30303;SDS011;17112;48.636;10.152;2023-12-20T05:34:29;0.80;;;0.80;;
30303;SDS011;17112;48.636;10.152;2023-12-20T05:36:55;0.90;;;0.90;;
30303;SDS011;17112;48.636;10.152;2023-12-20T05:39:22;1.70;;;0.90;;
30303;SDS011;17112;48.636;10.152;2023-12-20T05:41:48;1.10;;;1.00;;
30303;SDS011;17112;48.636;10.152;2023-12-20T05:44:14;0.90;;;0.90;;
30303;SDS011;17112;48.636;10.152;2023-12-20T05:46:39;1.67;;;1.33;;
30303;SDS011;17112;48.636;10.152;2023-12-20T05:49:06;1.50;;;1.40;;
30303;SDS011;17112;48.636;10.152;2023-12-20T05:51:32;2.00;;;1.80;;
30303;SDS011;17112;48.636;10.152;2023-12-20T05:53:58;1.42;;;1.33;;
30303;SDS011;17112;48.636;10.152;2023-12-20T05:56:24;1.85;;;1.30;;
30303;SDS011;17112;48.636;10.152;2023-12-20T05:58:49;1.50;;;1.40;;
30303;SDS011;17112;48.636;10.152;2023-12-20T06:01:15;1.38;;;1.27;;
30303;SDS011;17112;48.636;10.152;2023-12-20T06:03:44;1.33;;;1.23;;
30303;SDS011;17112;48.636;10.152;2023-12-20T06:06:11;2.42;;;1.67;;
30303;SDS011;17112;48.636;10.152;2023-12-20T06:08:38;2.20;;;1.70;;
30303;SDS011;17112;48.636;10.152;2023-12-20T06:11:04;8.98;;;4.40;;
30303;SDS011;17112;48.636;10.152;2023-12-20T06:13:30;4.35;;;3.00;;
30303;SDS011;17112;48.636;10.152;2023-12-20T06:15:56;2.40;;;2.20;;
30303;SDS011;17112;48.636;10.152;2023-12-20T06:18:22;4.82;;;1.98;;
30303;SDS011;17112;48.636;10.152;2023-12-20T06:20:48;1.60;;;1.50;;
30303;SDS011;17112;48.636;10.152;2023-12-20T06:23:14;1.30;;;1.20;;
30303;SDS011;17112;48.636;10.152;2023-12-20T06:25:39;1.20;;;1.10;;
30303;SDS011;17112;48.636;10.152;2023-12-20T06:28:05;1.20;;;1.10;;
30303;SDS011;17112;48.636;10.152;2023-12-20T06:30:31;1.10;;;1.00;;
30303;SDS011;17112;48.636;10.152;2023-12-20T06:32:58;1.05;;;0.80;;
30303;SDS011;17112;48.636;10.152;2023-12-20T06:35:24;1.00;;;1.00;;
30303;SDS011;17112;48.636;10.152;2023-12-20T06:37:50;1.00;;;1.00;;
30303;SDS011;17112;48.636;10.152;2023-12-20T06:40:15;1.13;;;0.90;;
30303;SDS011;17112;48.636;10.152;2023-12-20T06:42:41;0.90;;;0.90;;
30303;SDS011;17112;48.636;10.152;2023-12-20T06:45:07;1.02;;;0.90;;
30303;SDS011;17112;48.636;10.152;2023-12-20T06:47:33;0.93;;;0.90;;
30303;SDS011;17112;48.636;10.152;2023-12-20T06:49:59;1.00;;;1.00;;
30303;SDS011;17112;48.636;10.152;2023-12-20T06:52:25;0.80;;;0.80;;
30303;SDS011;17112;48.636;10.152;2023-12-20T06:54:52;4.65;;;1.10;;
30303;SDS011;17112;48.636;10.152;2023-12-20T06:57:17;2.22;;;0.75;;
30303;SDS011;17112;48.636;10.152;2023-12-20T06:59:44;0.75;;;0.75;;
30303;SDS011;17112;48.636;10.152;2023-12-20T07:02:10;0.80;;;0.80;;
30303;SDS011;17112;48.636;10.152;2023-12-20T07:04:39;1.48;;;0.80;;
30303;SDS011;17112;48.636;10.152;2023-12-20T07:07:05;0.80;;;0.80;;
30303;SDS011;17112;48.636;10.152;2023-12-20T07:09:32;1.15;;;0.80;;
30303;SDS011;17112;48.636;10.152;2023-12-20T07:11:58;0.70;;;0.70;;
30303;SDS011;17112;48.636;10.152;2023-12-20T07:14:24;1.27;;;1.00;;
30303;SDS011;17112;48.636;10.152;2023-12-20T07:16:50;1.60;;;1.40;;
30303;SDS011;17112;48.636;10.152;2023-12-20T07:19:16;1.23;;;0.93;;
30303;SDS011;17112;48.636;10.152;2023-12-20T07:21:42;1.42;;;1.33;;
30303;SDS011;17112;48.636;10.152;2023-12-20T07:24:08;0.90;;;0.90;;
30303;SDS011;17112;48.636;10.152;2023-12-20T07:26:34;1.23;;;1.10;;
30303;SDS011;17112;48.636;10.152;2023-12-20T07:29:00;1.30;;;1.10;;
30303;SDS011;17112;48.636;10.152;2023-12-20T07:31:26;2.53;;;1.75;;
30303;SDS011;17112;48.636;10.152;2023-12-20T07:33:52;1.50;;;1.40;;
30303;SDS011;17112;48.636;10.152;2023-12-20T07:36:19;1.10;;;1.00;;
30303;SDS011;17112;48.636;10.152;2023-12-20T07:38:44;1.00;;;0.95;;
30303;SDS011;17112;48.636;10.152;2023-12-20T07:41:10;0.80;;;0.80;;
30303;SDS011;17112;48.636;10.152;2023-12-20T07:43:36;0.75;;;0.70;;
30303;SDS011;17112;48.636;10.152;2023-12-20T07:46:08;0.60;;;0.60;;
30303;SDS011;17112;48.636;10.152;2023-12-20T07:48:35;0.73;;;0.73;;
30303;SDS011;17112;48.636;10.152;2023-12-20T07:51:02;0.70;;;0.70;;
30303;SDS011;17112;48.636;10.152;2023-12-20T07:53:28;0.73;;;0.73;;
30303;SDS011;17112;48.636;10.152;2023-12-20T07:55:54;0.80;;;0.80;;
30303;SDS011;17112;48.636;10.152;2023-12-20T07:58:20;1.23;;;0.50;;
30303;SDS011;17112;48.636;10.152;2023-12-20T08:00:47;0.70;;;0.70;;
30303;SDS011;17112;48.636;10.152;2023-12-20T08:03:12;0.90;;;0.90;;
30303;SDS011;17112;48.636;10.152;2023-12-20T08:05:39;0.80;;;0.68;;
30303;SDS011;17112;48.636;10.152;2023-12-20T08:08:05;0.60;;;0.60;;
30303;SDS011;17112;48.636;10.152;2023-12-20T08:10:31;2.55;;;0.70;;
30303;SDS011;17112;48.636;10.152;2023-12-20T08:12:57;1.55;;;0.77;;
30303;SDS011;17112;48.636;10.152;2023-12-20T08:15:23;1.13;;;0.93;;
30303;SDS011;17112;48.636;10.152;2023-12-20T08:17:49;1.60;;;0.90;;
30303;SDS011;17112;48.636;10.152;2023-12-20T08:20:18;0.70;;;0.70;;
30303;SDS011;17112;48.636;10.152;2023-12-20T08:22:45;1.50;;;0.80;;
30303;SDS011;17112;48.636;10.152;2023-12-20T08:25:11;0.77;;;0.73;;
30303;SDS011;17112;48.636;10.152;2023-12-20T08:27:40;0.75;;;0.70;;
30303;SDS011;17112;48.636;10.152;2023-12-20T08:30:08;0.98;;;0.60;;
30303;SDS011;17112;48.636;10.152;2023-12-20T08:32:34;1.23;;;0.70;;
30303;SDS011;17112;48.636;10.152;2023-12-20T08:35:01;0.75;;;0.68;;
30303;SDS011;17112;48.636;10.152;2023-12-20T08:37:27;1.23;;;0.60;;
30303;SDS011;17112;48.636;10.152;2023-12-20T08:39:54;0.70;;;0.70;;
30303;SDS011;17112;48.636;10.152;2023-12-20T08:42:21;0.60;;;0.60;;
30303;SDS011;17112;48.636;10.152;2023-12-20T08:44:46;0.60;;;0.60;;
30303;SDS011;17112;48.636;10.152;2023-12-20T08:47:12;1.48;;;0.90;;
30303;SDS011;17112;48.636;10.152;2023-12-20T08:49:40;0.90;;;0.90;;
30303;SDS011;17112;48.636;10.152;2023-12-20T08:52:08;0.80;;;0.80;;
30303;SDS011;17112;48.636;10.152;2023-12-20T08:54:34;0.77;;;0.65;;
30303;SDS011;17112;48.636;10.152;2023-12-20T08:56:59;0.60;;;0.60;;
30303;SDS011;17112;48.636;10.152;2023-12-20T08:59:25;0.80;;;0.80;;
30303;SDS011;17112;48.636;10.152;2023-12-20T09:01:51;1.40;;;0.60;;
30303;SDS011;17112;48.636;10.152;2023-12-20T09:04:19;0.82;;;0.70;;
30303;SDS011;17112;48.636;10.152;2023-12-20T09:06:45;1.42;;;0.63;;
30303;SDS011;17112;48.636;10.152;2023-12-20T09:09:11;1.10;;;0.80;;
30303;SDS011;17112;48.636;10.152;2023-12-20T09:11:38;1.30;;;0.80;;
30303;SDS011;17112;48.636;10.152;2023-12-20T09:14:04;2.15;;;0.80;;
30303;SDS011;17112;48.636;10.152;2023-12-20T09:16:30;0.70;;;0.60;;
30303;SDS011;17112;48.636;10.152;2023-12-20T09:18:56;0.80;;;0.80;;
30303;SDS011;17112;48.636;10.152;2023-12-20T09:21:22;0.98;;;0.88;;
30303;SDS011;17112;48.636;10.152;2023-12-20T09:23:48;0.80;;;0.80;;
30303;SDS011;17112;48.636;10.152;2023-12-20T09:26:13;1.30;;;1.08;;
30303;SDS011;17112;48.636;10.152;2023-12-20T09:28:39;2.03;;;1.10;;
30303;SDS011;17112;48.636;10.152;2023-12-20T09:31:05;0.98;;;0.90;;
30303;SDS011;17112;48.636;10.152;2023-12-20T09:33:32;1.55;;;1.00;;
30303;SDS011;17112;48.636;10.152;2023-12-20T09:35:58;1.52;;;1.00;;
30303;SDS011;17112;48.636;10.152;2023-12-20T09:38:24;0.90;;;0.90;;
30303;SDS011;17112;48.636;10.152;2023-12-20T09:40:50;1.40;;;1.10;;
30303;SDS011;17112;48.636;10.152;2023-12-20T09:43:16;1.27;;;1.17;;
30303;SDS011;17112;48.636;10.152;2023-12-20T09:45:46;1.60;;;1.50;;
30303;SDS011;17112;48.636;10.152;2023-12-20T09:48:13;1.38;;;1.27;;
30303;SDS011;17112;48.636;10.152;2023-12-20T09:50:42;2.05;;;1.35;;
30303;SDS011;17112;48.636;10.152;2023-12-20T09:53:10;1.38;;;1.27;;
30303;SDS011;17112;48.636;10.152;2023-12-20T09:55:39;2.25;;;1.60;;
30303;SDS011;17112;48.636;10.152;2023-12-20T09:58:06;2.15;;;1.58;;
30303;SDS011;17112;48.636;10.152;2023-12-20T10:00:34;2.75;;;1.50;;
30303;SDS011;17112;48.636;10.152;2023-12-20T10:03:00;2.83;;;1.55;;
30303;SDS011;17112;48.636;10.152;2023-12-20T10:05:32;2.50;;;1.92;;
30303;SDS011;17112;48.636;10.152;2023-12-20T10:07:59;2.25;;;1.75;;
30303;SDS011;17112;48.636;10.152;2023-12-20T10:10:26;4.63;;;2.17;;
30303;SDS011;17112;48.636;10.152;2023-12-20T10:13:05;17.98;;;8.10;;
30303;SDS011;17112;48.636;10.152;2023-12-20T10:15:35;5.22;;;2.47;;
30303;SDS011;17112;48.636;10.152;2023-12-20T10:18:02;2.95;;;1.92;;
30303;SDS011;17112;48.636;10.152;2023-12-20T10:20:29;1.95;;;1.75;;
30303;SDS011;17112;48.636;10.152;2023-12-20T10:22:56;3.72;;;2.00;;
30303;SDS011;17112;48.636;10.152;2023-12-20T10:25:25;5.43;;;2.55;;
30303;SDS011;17112;48.636;10.152;2023-12-20T10:28:08;4.15;;;2.38;;
30303;SDS011;17112;48.636;10.152;2023-12-20T10:30:36;2.00;;;1.80;;
30303;SDS011;17112;48.636;10.152;2023-12-20T10:33:02;2.85;;;1.90;;
30303;SDS011;17112;48.636;10.152;2023-12-20T10:35:28;2.53;;;1.42;;
30303;SDS011;17112;48.636;10.152;2023-12-20T10:37:55;3.60;;;1.80;;
30303;SDS011;17112;48.636;10.152;2023-12-20T10:40:24;1.60;;;1.40;;
30303;SDS011;17112;48.636;10.152;2023-12-20T10:42:52;6.53;;;1.90;;
30303;SDS011;17112;48.636;10.152;2023-12-20T10:45:23;5.18;;;2.13;;
30303;SDS011;17112;48.636;10.152;2023-12-20T10:47:50;3.05;;;1.83;;
30303;SDS011;17112;48.636;10.152;2023-12-20T10:50:16;5.75;;;2.05;;
30303;SDS011;17112;48.636;10.152;2023-12-20T10:52:45;4.00;;;1.80;;
30303;SDS011;17112;48.636;10.152;2023-12-20T10:55:11;3.70;;;1.88;;
30303;SDS011;17112;48.636;10.152;2023-12-20T10:57:37;3.88;;;2.20;;
30303;SDS011;17112;48.636;10.152;2023-12-20T11:00:04;3.95;;;1.92;;
30303;SDS011;17112;48.636;10.152;2023-12-20T11:02:35;5.10;;;2.22;;
30303;SDS011;17112;48.636;10.152;2023-12-20T11:05:06;5.88;;;2.00;;
30303;SDS011;17112;48.636;10.152;2023-12-20T11:07:52;3.55;;;1.60;;
30303;SDS011;17112;48.636;10.152;2023-12-20T11:11:26;7.00;;;2.15;;
30303;SDS011;17112;48.636;10.152;2023-12-20T11:13:26;2.92;;;1.52;;
30303;SDS011;17112;48.636;10.152;2023-12-20T11:15:57;7.10;;;2.83;;
30303;SDS011;17112;48.636;10.152;2023-12-20T11:18:30;7.50;;;1.80;;
30303;SDS011;17112;48.636;10.152;2023-12-20T11:20:59;6.57;;;2.25;;
30303;SDS011;17112;48.636;10.152;2023-12-20T11:23:29;4.55;;;2.08;;
30303;SDS011;17112;48.636;10.152;2023-12-20T11:25:56;5.35;;;1.80;;
30303;SDS011;17112;48.636;10.152;2023-12-20T11:28:25;9.38;;;1.73;;
30303;SDS011;17112;48.636;10.152;2023-12-20T11:33:31;4.50;;;2.10;;
30303;SDS011;17112;48.636;10.152;2023-12-20T11:36:02;4.18;;;1.60;;
30303;SDS011;17112;48.636;10.152;2023-12-20T11:38:35;4.18;;;1.60;;
30303;SDS011;17112;48.636;10.152;2023-12-20T11:41:02;4.78;;;1.63;;
30303;SDS011;17112;48.636;10.152;2023-12-20T11:43:37;7.82;;;2.17;;
30303;SDS011;17112;48.636;10.152;2023-12-20T11:46:07;5.20;;;2.10;;
30303;SDS011;17112;48.636;10.152;2023-12-20T11:48:35;12.02;;;3.33;;
30303;SDS011;17112;48.636;10.152;2023-12-20T11:51:02;8.50;;;2.45;;
30303;SDS011;17112;48.636;10.152;2023-12-20T11:53:34;8.82;;;2.08;;
30303;SDS011;17112;48.636;10.152;2023-12-20T11:56:00;5.57;;;1.80;;
30303;SDS011;17112;48.636;10.152;2023-12-20T11:58:28;6.57;;;1.90;;
30303;SDS011;17112;48.636;10.152;2023-12-20T12:00:53;7.38;;;2.00;;
30303;SDS011;17112;48.636;10.152;2023-12-20T12:03:20;2.28;;;1.65;;
30303;SDS011;17112;48.636;10.152;2023-12-20T12:05:49;5.78;;;2.00;;
30303;SDS011;17112;48.636;10.152;2023-12-20T12:08:16;6.57;;;1.80;;
30303;SDS011;17112;48.636;10.152;2023-12-20T12:10:42;4.50;;;1.80;;
30303;SDS011;17112;48.636;10.152;2023-12-20T12:13:09;4.65;;;1.67;;
30303;SDS011;17112;48.636;10.152;2023-12-20T12:15:35;7.53;;;1.88;;
30303;SDS011;17112;48.636;10.152;2023-12-20T12:18:01;5.50;;;1.90;;
30303;SDS011;17112;48.636;10.152;2023-12-20T12:20:27;5.22;;;2.08;;
30303;SDS011;17112;48.636;10.152;2023-12-20T12:25:28;3.42;;;1.65;;
30303;SDS011;17112;48.636;10.152;2023-12-20T12:27:59;7.00;;;1.80;;
30303;SDS011;17112;48.636;10.152;2023-12-20T12:30:25;4.45;;;1.73;;
30303;SDS011;17112;48.636;10.152;2023-12-20T12:32:52;3.53;;;1.63;;
30303;SDS011;17112;48.636;10.152;2023-12-20T12:35:18;8.55;;;2.22;;
30303;SDS011;17112;48.636;10.152;2023-12-20T12:37:45;6.28;;;1.85;;
30303;SDS011;17112;48.636;10.152;2023-12-20T12:40:14;5.28;;;1.65;;
30303;SDS011;17112;48.636;10.152;2023-12-20T12:42:41;3.95;;;2.13;;
30303;SDS011;17112;48.636;10.152;2023-12-20T12:45:09;5.45;;;1.83;;
30303;SDS011;17112;48.636;10.152;2023-12-20T12:47:34;7.80;;;1.80;;
30303;SDS011;17112;48.636;10.152;2023-12-20T12:50:01;8.82;;;1.88;;
30303;SDS011;17112;48.636;10.152;2023-12-20T12:52:27;6.97;;;1.90;;
30303;SDS011;17112;48.636;10.152;2023-12-20T12:54:53;2.95;;;1.65;;
30303;SDS011;17112;48.636;10.152;2023-12-20T12:57:18;4.95;;;1.80;;
30303;SDS011;17112;48.636;10.152;2023-12-20T12:59:45;3.78;;;1.55;;
30303;SDS011;17112;48.636;10.152;2023-12-20T13:02:12;4.25;;;1.65;;
30303;SDS011;17112;48.636;10.152;2023-12-20T13:04:38;5.80;;;1.85;;
30303;SDS011;17112;48.636;10.152;2023-12-20T13:07:04;5.40;;;2.40;;
30303;SDS011;17112;48.636;10.152;2023-12-20T13:09:30;9.25;;;1.90;;
30303;SDS011;17112;48.636;10.152;2023-12-20T13:11:56;5.82;;;2.00;;
30303;SDS011;17112;48.636;10.152;2023-12-20T13:14:22;6.43;;;2.45;;
30303;SDS011;17112;48.636;10.152;2023-12-20T13:16:48;7.82;;;2.03;;
30303;SDS011;17112;48.636;10.152;2023-12-20T13:19:13;4.78;;;1.90;;
30303;SDS011;17112;48.636;10.152;2023-12-20T13:21:39;3.97;;;2.05;;
30303;SDS011;17112;48.636;10.152;2023-12-20T13:24:05;9.43;;;2.05;;
30303;SDS011;17112;48.636;10.152;2023-12-20T13:26:31;6.05;;;2.03;;
30303;SDS011;17112;48.636;10.152;2023-12-20T13:28:57;6.18;;;1.67;;
30303;SDS011;17112;48.636;10.152;2023-12-20T13:31:23;5.57;;;1.95;;
30303;SDS011;17112;48.636;10.152;2023-12-20T13:33:49;3.38;;;1.60;;
30303;SDS011;17112;48.636;10.152;2023-12-20T13:36:17;6.50;;;2.25;;
30303;SDS011;17112;48.636;10.152;2023-12-20T13:38:43;6.43;;;1.80;;
30303;SDS011;17112;48.636;10.152;2023-12-20T13:41:08;5.70;;;1.73;;
30303;SDS011;17112;48.636;10.152;2023-12-20T13:43:34;6.90;;;2.30;;
30303;SDS011;17112;48.636;10.152;2023-12-20T13:46:00;5.50;;;1.95;;
30303;SDS011;17112;48.636;10.152;2023-12-20T13:48:26;6.05;;;1.83;;
30303;SDS011;17112;48.636;10.152;2023-12-20T13:50:52;5.88;;;1.83;;
30303;SDS011;17112;48.636;10.152;2023-12-20T13:53:17;3.55;;;1.77;;
30303;SDS011;17112;48.636;10.152;2023-12-20T13:55:44;4.97;;;1.80;;
30303;SDS011;17112;48.636;10.152;2023-12-20T13:58:10;4.95;;;1.40;;
30303;SDS011;17112;48.636;10.152;2023-12-20T14:00:35;7.70;;;1.83;;
30303;SDS011;17112;48.636;10.152;2023-12-20T14:03:02;7.07;;;1.92;;
30303;SDS011;17112;48.636;10.152;2023-12-20T14:05:31;8.32;;;1.95;;
30303;SDS011;17112;48.636;10.152;2023-12-20T14:07:57;6.45;;;1.73;;
30303;SDS011;17112;48.636;10.152;2023-12-20T14:10:23;7.00;;;2.20;;
30303;SDS011;17112;48.636;10.152;2023-12-20T14:12:51;6.78;;;1.73;;
30303;SDS011;17112;48.636;10.152;2023-12-20T14:15:17;4.22;;;1.52;;
30303;SDS011;17112;48.636;10.152;2023-12-20T14:17:43;4.30;;;1.48;;
30303;SDS011;17112;48.636;10.152;2023-12-20T14:20:09;4.93;;;1.60;;
30303;SDS011;17112;48.636;10.152;2023-12-20T14:22:36;4.20;;;1.63;;
30303;SDS011;17112;48.636;10.152;2023-12-20T14:25:03;3.78;;;1.60;;
30303;SDS011;17112;48.636;10.152;2023-12-20T14:27:30;5.38;;;1.63;;
30303;SDS011;17112;48.636;10.152;2023-12-20T14:29:55;3.85;;;1.60;;
30303;SDS011;17112;48.636;10.152;2023-12-20T14:32:21;3.72;;;1.35;;
30303;SDS011;17112;48.636;10.152;2023-12-20T14:34:47;6.85;;;1.70;;